createdAt,value
2023-04-18T00:01:49.055Z,99.90
2023-04-18T00:04:18.368Z,99.90
2023-04-18T00:06:46.504Z,99.90
2023-04-18T00:09:13.311Z,99.90
2023-04-18T00:11:40.074Z,99.90
2023-04-18T00:14:06.798Z,99.90
2023-04-18T00:16:33.684Z,99.90
2023-04-18T00:19:02.360Z,99.90
2023-04-18T00:21:30.359Z,99.90
2023-04-18T00:23:57.085Z,99.90
2023-04-18T00:26:23.898Z,99.90
2023-04-18T00:28:50.684Z,99.90
2023-04-18T00:31:17.471Z,99.90
2023-04-18T00:33:44.190Z,99.90
2023-04-18T00:36:10.885Z,99.90
2023-04-18T00:38:37.594Z,99.90
2023-04-18T00:41:04.320Z,99.90
2023-04-18T00:43:31.223Z,99.90
2023-04-18T00:46:01.545Z,99.90
2023-04-18T00:48:28.440Z,99.90
2023-04-18T00:50:55.194Z,99.90
2023-04-18T00:53:21.877Z,99.90
2023-04-18T00:55:48.580Z,99.90
2023-04-18T00:58:15.356Z,99.90
2023-04-18T01:00:42.799Z,99.90
2023-04-18T01:03:10.946Z,99.90
2023-04-18T01:05:37.889Z,99.90
2023-04-18T01:08:04.689Z,99.90
2023-04-18T01:10:31.466Z,99.90
2023-04-18T01:12:58.110Z,99.90
2023-04-18T01:15:24.862Z,99.90
2023-04-18T01:17:52.545Z,99.90
2023-04-18T01:20:19.691Z,99.90
2023-04-18T01:22:46.640Z,99.90
2023-04-18T01:25:13.313Z,99.90
2023-04-18T01:27:39.976Z,99.90
2023-04-18T01:30:06.847Z,99.90
2023-04-18T01:32:33.560Z,99.90
2023-04-18T01:35:00.241Z,99.90
2023-04-18T01:37:26.903Z,99.90
2023-04-18T01:39:54.019Z,99.90
2023-04-18T01:42:20.751Z,99.90
2023-04-18T01:44:47.501Z,99.90
2023-04-18T01:47:14.179Z,99.90
2023-04-18T01:49:43.097Z,99.90
2023-04-18T01:52:12.620Z,99.90
2023-04-18T01:54:39.441Z,99.90
2023-04-18T01:57:06.225Z,99.90
2023-04-18T01:59:34.240Z,99.90
2023-04-18T02:02:01.104Z,99.90
2023-04-18T02:04:27.876Z,99.90
2023-04-18T02:06:54.552Z,99.90
2023-04-18T02:09:21.365Z,99.90
2023-04-18T02:11:48.131Z,99.90
2023-04-18T02:14:15.086Z,99.90
2023-04-18T02:16:41.942Z,99.90
2023-04-18T02:19:08.659Z,99.90
2023-04-18T02:21:35.280Z,99.90
2023-04-18T02:24:01.932Z,99.90
2023-04-18T02:26:28.652Z,99.90
2023-04-18T02:28:55.725Z,99.90
2023-04-18T02:31:22.433Z,99.90
2023-04-18T02:33:49.454Z,99.90
2023-04-18T02:36:16.205Z,99.90
2023-04-18T02:38:42.830Z,99.90
2023-04-18T02:41:09.451Z,99.90
2023-04-18T02:43:36.082Z,99.90
2023-04-18T02:46:02.817Z,99.90
2023-04-18T02:48:29.615Z,99.90
2023-04-18T02:50:56.395Z,99.90
2023-04-18T02:53:25.076Z,99.90
2023-04-18T02:55:51.722Z,99.90
2023-04-18T02:58:18.437Z,99.90
2023-04-18T03:00:45.130Z,99.90
2023-04-18T03:03:12.859Z,99.90
2023-04-18T03:05:40.043Z,99.90
2023-04-18T03:08:06.644Z,99.90
2023-04-18T03:10:33.318Z,99.90
2023-04-18T03:13:00.069Z,99.90
2023-04-18T03:15:26.997Z,99.90
2023-04-18T03:17:53.778Z,99.90
2023-04-18T03:20:20.505Z,99.90
2023-04-18T03:22:47.141Z,99.90
2023-04-18T03:25:13.818Z,99.90
2023-04-18T03:27:40.561Z,99.90
2023-04-18T03:30:07.351Z,99.90
2023-04-18T03:32:35.280Z,99.90
2023-04-18T03:35:01.953Z,99.90
2023-04-18T03:37:28.595Z,99.90
2023-04-18T03:39:55.376Z,99.90
2023-04-18T03:42:22.082Z,99.90
2023-04-18T03:44:48.847Z,99.90
2023-04-18T03:47:15.593Z,99.90
2023-04-18T03:49:42.192Z,99.90
2023-04-18T03:52:08.783Z,99.90
2023-04-18T03:54:35.478Z,99.90
2023-04-18T03:57:03.178Z,99.90
2023-04-18T03:59:29.856Z,99.90
2023-04-18T04:01:56.508Z,99.90
2023-04-18T04:04:23.444Z,99.90
2023-04-18T04:06:50.724Z,99.90
2023-04-18T04:09:17.556Z,99.90
2023-04-18T04:11:45.920Z,99.90
2023-04-18T04:14:13.004Z,99.90
2023-04-18T04:16:40.544Z,99.90
2023-04-18T04:19:07.166Z,99.90
2023-04-18T04:21:33.848Z,99.90
2023-04-18T04:24:01.462Z,99.90
2023-04-18T04:26:28.188Z,99.90
2023-04-18T04:28:54.932Z,99.90
2023-04-18T04:31:22.263Z,99.90
2023-04-18T04:33:48.986Z,99.90
2023-04-18T04:36:18.781Z,99.90
2023-04-18T04:38:45.821Z,99.90
2023-04-18T04:41:12.835Z,99.90
2023-04-18T04:43:41.382Z,99.90
2023-04-18T04:46:08.850Z,99.90
2023-04-18T04:48:35.627Z,99.90
2023-04-18T04:51:02.484Z,99.90
2023-04-18T04:53:32.394Z,99.90
2023-04-18T04:56:01.276Z,99.90
2023-04-18T04:58:28.099Z,99.90
2023-04-18T05:00:54.985Z,99.90
2023-04-18T05:03:21.887Z,99.90
2023-04-18T05:05:48.797Z,99.90
2023-04-18T05:08:15.486Z,99.90
2023-04-18T05:10:43.375Z,99.90
2023-04-18T05:13:10.205Z,99.90
2023-04-18T05:15:36.815Z,99.90
2023-04-18T05:18:03.471Z,99.90
2023-04-18T05:20:30.400Z,99.90
2023-04-18T05:22:57.125Z,99.90
2023-04-18T05:25:24.036Z,99.90
2023-04-18T05:27:50.633Z,99.90
2023-04-18T05:30:17.762Z,99.90
2023-04-18T05:32:44.409Z,99.90
2023-04-18T05:35:11.158Z,99.90
2023-04-18T05:37:37.844Z,99.90
2023-04-18T05:40:05.074Z,99.90
2023-04-18T05:42:31.708Z,99.90
2023-04-18T05:44:58.373Z,99.90
2023-04-18T05:47:28.541Z,99.90
2023-04-18T05:49:55.482Z,99.90
2023-04-18T05:52:22.218Z,99.90
2023-04-18T05:54:48.978Z,99.90
2023-04-18T05:57:16.222Z,99.90
2023-04-18T05:59:42.954Z,99.90
2023-04-18T06:02:13.573Z,99.90
2023-04-18T06:04:41.872Z,99.90
2023-04-18T06:07:08.814Z,99.90
2023-04-18T06:09:35.553Z,99.90
2023-04-18T06:12:02.370Z,99.90
2023-04-18T06:14:29.034Z,99.90
2023-04-18T06:16:55.720Z,99.90
2023-04-18T06:19:22.518Z,99.90
2023-04-18T06:21:49.222Z,99.90
2023-04-18T06:24:16.264Z,99.90
2023-04-18T06:26:43.297Z,99.90
2023-04-18T06:29:10.088Z,99.90
2023-04-18T06:31:36.823Z,99.90
2023-04-18T06:34:03.572Z,99.90
2023-04-18T06:36:30.444Z,99.90
2023-04-18T06:38:57.173Z,99.90
2023-04-18T06:41:23.862Z,99.90
2023-04-18T06:44:02.650Z,99.90
2023-04-18T06:46:30.687Z,99.90
2023-04-18T06:48:57.502Z,99.90
2023-04-18T06:51:24.230Z,99.90
2023-04-18T06:53:52.987Z,99.90
2023-04-18T06:56:20.621Z,99.90
2023-04-18T06:58:47.262Z,99.90
2023-04-18T07:01:13.962Z,99.90
2023-04-18T07:03:40.789Z,99.90
2023-04-18T07:06:08.926Z,99.90
2023-04-18T07:08:35.605Z,99.90
2023-04-18T07:11:02.251Z,99.90
2023-04-18T07:13:28.881Z,99.90
2023-04-18T07:15:55.555Z,99.90
2023-04-18T07:18:34.154Z,99.90
2023-04-18T07:21:03.762Z,99.90
2023-04-18T07:23:30.700Z,99.90
2023-04-18T07:25:59.538Z,99.90
2023-04-18T07:28:26.231Z,99.90
2023-04-18T07:30:55.235Z,99.90
2023-04-18T07:33:22.042Z,99.90
2023-04-18T07:35:50.037Z,99.90
2023-04-18T07:38:16.722Z,99.90
2023-04-18T07:40:43.353Z,99.90
2023-04-18T07:43:09.980Z,99.90
2023-04-18T07:45:38.436Z,99.90
2023-04-18T07:48:05.162Z,99.90
2023-04-18T07:50:32.027Z,99.90
2023-04-18T07:52:58.743Z,99.90
2023-04-18T07:55:25.447Z,99.90
2023-04-18T07:57:52.158Z,99.90
2023-04-18T08:00:18.785Z,99.90
2023-04-18T08:02:45.574Z,99.90
2023-04-18T08:05:12.396Z,99.90
2023-04-18T08:07:39.038Z,99.90
2023-04-18T08:10:05.776Z,99.90
2023-04-18T08:12:32.460Z,99.90
2023-04-18T08:14:59.195Z,99.90
2023-04-18T08:17:25.933Z,99.90
2023-04-18T08:19:52.584Z,99.90
2023-04-18T08:22:19.263Z,99.90
2023-04-18T08:25:01.112Z,99.90
2023-04-18T08:27:31.493Z,99.90
2023-04-18T08:29:58.332Z,99.90
2023-04-18T08:32:25.092Z,99.70
2023-04-18T08:34:51.856Z,99.60
2023-04-18T08:37:18.486Z,98.00
2023-04-18T08:39:45.248Z,98.20
2023-04-18T08:42:11.972Z,97.30
2023-04-18T08:44:38.634Z,96.70
2023-04-18T08:47:06.230Z,96.30
2023-04-18T08:49:33.769Z,95.40
2023-04-18T08:52:01.300Z,95.30
2023-04-18T08:54:30.503Z,95.50
2023-04-18T08:56:57.248Z,95.50
2023-04-18T08:59:25.238Z,95.50
2023-04-18T09:01:52.914Z,95.30
2023-04-18T09:04:22.245Z,95.30
2023-04-18T09:06:49.219Z,94.30
2023-04-18T09:09:15.973Z,94.00
2023-04-18T09:11:42.703Z,94.80
2023-04-18T09:14:09.368Z,94.70
2023-04-18T09:16:36.076Z,94.70
2023-04-18T09:19:04.691Z,94.00
2023-04-18T09:21:33.025Z,94.00
2023-04-18T09:23:59.726Z,94.00
2023-04-18T09:26:26.458Z,94.50
2023-04-18T09:28:53.973Z,95.40
2023-04-18T09:31:22.310Z,95.00
2023-04-18T09:33:49.738Z,95.60
2023-04-18T09:36:16.773Z,95.50
2023-04-18T09:38:43.385Z,95.60
2023-04-18T09:41:10.116Z,96.30
2023-04-18T09:43:36.738Z,96.80
2023-04-18T09:46:03.434Z,95.90
2023-04-18T09:48:30.365Z,95.10
2023-04-18T09:50:56.973Z,95.00
2023-04-18T09:53:23.736Z,95.40
2023-04-18T09:55:50.464Z,95.30
2023-04-18T09:58:17.360Z,95.40
2023-04-18T10:00:46.269Z,96.40
2023-04-18T10:03:13.600Z,96.20
2023-04-18T10:05:40.662Z,96.60
2023-04-18T10:08:07.413Z,97.10
2023-04-18T10:10:34.059Z,96.40
2023-04-18T10:13:00.727Z,96.20
2023-04-18T10:15:27.389Z,96.60
2023-04-18T10:18:03.783Z,95.70
2023-04-18T10:20:32.230Z,96.00
2023-04-18T10:22:58.812Z,96.10
2023-04-18T10:25:25.552Z,95.90
2023-04-18T10:27:52.212Z,95.70
2023-04-18T10:30:18.942Z,95.80
2023-04-18T10:32:45.722Z,96.00
2023-04-18T10:35:12.485Z,95.90
2023-04-18T10:37:39.089Z,95.20
2023-04-18T10:40:10.382Z,95.70
2023-04-18T10:42:36.987Z,95.30
2023-04-18T10:45:03.689Z,95.00
2023-04-18T10:47:30.578Z,95.20
2023-04-18T10:49:57.400Z,94.60
2023-04-18T10:52:24.186Z,94.80
2023-04-18T10:54:50.967Z,94.20
2023-04-18T10:57:17.863Z,93.50
2023-04-18T10:59:44.548Z,94.30
2023-04-18T11:02:11.309Z,94.20
2023-04-18T11:04:38.089Z,94.80
2023-04-18T11:07:04.859Z,95.10
2023-04-18T11:09:31.544Z,94.70
2023-04-18T11:11:58.236Z,95.20
2023-04-18T11:14:24.867Z,95.20
2023-04-18T11:16:51.565Z,94.80
2023-04-18T11:19:19.069Z,95.00
2023-04-18T11:21:45.810Z,95.70
2023-04-18T11:24:12.621Z,95.60
2023-04-18T11:26:39.774Z,96.10
2023-04-18T11:29:06.454Z,96.20
2023-04-18T11:31:33.224Z,95.90
2023-04-18T11:33:59.944Z,95.20
2023-04-18T11:36:26.603Z,94.30
2023-04-18T11:38:53.325Z,93.20
2023-04-18T11:41:20.096Z,92.80
2023-04-18T11:43:46.770Z,94.70
2023-04-18T11:46:13.735Z,94.20
2023-04-18T11:48:40.795Z,94.20
2023-04-18T11:51:07.620Z,93.90
2023-04-18T11:53:34.756Z,94.20
2023-04-18T11:56:03.575Z,94.40
2023-04-18T11:58:30.302Z,95.20
2023-04-18T12:00:57.088Z,94.60
2023-04-18T12:03:24.895Z,94.40
2023-04-18T12:05:52.013Z,94.70
2023-04-18T12:08:18.773Z,94.40
2023-04-18T12:10:45.522Z,95.00
2023-04-18T12:13:12.180Z,95.60
2023-04-18T12:15:39.334Z,95.60
2023-04-18T12:18:08.460Z,96.10
2023-04-18T12:20:35.575Z,95.80
2023-04-18T12:23:03.633Z,95.90
2023-04-18T12:25:30.272Z,95.90
2023-04-18T12:27:58.143Z,95.60
2023-04-18T12:30:25.662Z,95.80
2023-04-18T12:32:52.362Z,96.70
2023-04-18T12:35:22.139Z,95.80
2023-04-18T12:37:48.936Z,95.60
2023-04-18T12:40:15.743Z,95.00
2023-04-18T12:42:42.463Z,95.50
2023-04-18T12:45:09.215Z,95.60
2023-04-18T12:47:35.932Z,95.70
2023-04-18T12:50:02.708Z,96.70
2023-04-18T12:52:30.405Z,94.70
2023-04-18T12:54:57.933Z,94.90
2023-04-18T12:57:24.645Z,95.50
2023-04-18T12:59:51.340Z,95.30
2023-04-18T13:02:21.153Z,95.80
2023-04-18T13:04:48.049Z,96.10
2023-04-18T13:07:14.818Z,95.30
2023-04-18T13:09:41.492Z,95.80
2023-04-18T13:12:08.168Z,97.50
2023-04-18T13:14:34.854Z,97.50
2023-04-18T13:17:01.571Z,97.80
2023-04-18T13:19:28.383Z,97.30
2023-04-18T13:21:55.051Z,98.10
2023-04-18T13:24:21.773Z,98.40
2023-04-18T13:26:48.448Z,96.90
2023-04-18T13:29:15.521Z,96.60
2023-04-18T13:31:42.771Z,97.10
2023-04-18T13:34:09.456Z,96.30
2023-04-18T13:36:36.172Z,95.80
2023-04-18T13:39:04.696Z,96.30
2023-04-18T13:41:31.597Z,96.80
2023-04-18T13:43:58.457Z,97.70
2023-04-18T13:46:26.734Z,96.30
2023-04-18T13:48:53.481Z,96.80
2023-04-18T13:51:20.220Z,97.20
2023-04-18T13:53:46.890Z,95.90
2023-04-18T13:56:13.677Z,95.20
2023-04-18T13:58:40.632Z,95.00
2023-04-18T14:01:07.703Z,95.60
2023-04-18T14:03:35.621Z,96.10
2023-04-18T14:06:04.300Z,95.90
2023-04-18T14:08:30.962Z,95.80
2023-04-18T14:10:57.598Z,96.20
2023-04-18T14:13:24.341Z,94.70
2023-04-18T14:15:51.140Z,95.00
2023-04-18T14:18:21.855Z,95.80
2023-04-18T14:20:48.815Z,96.00
2023-04-18T14:23:16.189Z,96.10
2023-04-18T14:25:42.851Z,95.30
2023-04-18T14:28:09.876Z,94.70
2023-04-18T14:30:36.702Z,94.70
2023-04-18T14:33:03.935Z,95.60
2023-04-18T14:35:30.990Z,95.00
2023-04-18T14:37:57.740Z,95.20
2023-04-18T14:40:24.497Z,94.70
2023-04-18T14:42:51.303Z,95.60
2023-04-18T14:45:18.073Z,95.10
2023-04-18T14:47:44.878Z,95.20
2023-04-18T14:50:12.278Z,94.90
2023-04-18T14:52:39.041Z,94.90
2023-04-18T14:55:05.824Z,95.10
2023-04-18T14:57:32.542Z,95.40
2023-04-18T14:59:59.218Z,94.70
2023-04-18T15:02:26.306Z,94.00
2023-04-18T15:04:53.660Z,93.90
2023-04-18T15:07:20.565Z,93.90
2023-04-18T15:09:47.353Z,93.80
2023-04-18T15:12:14.142Z,93.90
2023-04-18T15:14:40.940Z,94.00
2023-04-18T15:17:07.653Z,95.10
2023-04-18T15:19:34.665Z,94.80
2023-04-18T15:22:01.372Z,94.50
2023-04-18T15:24:28.016Z,95.20
2023-04-18T15:26:54.954Z,94.70
2023-04-18T15:29:21.801Z,95.50
2023-04-18T15:31:48.651Z,96.20
2023-04-18T15:34:15.732Z,96.40
2023-04-18T15:36:42.657Z,95.80
2023-04-18T15:39:09.577Z,96.80
2023-04-18T15:41:36.314Z,96.10
2023-04-18T15:44:02.957Z,96.20
2023-04-18T15:46:29.757Z,96.40
2023-04-18T15:48:56.463Z,96.30
2023-04-18T15:51:23.210Z,96.90
2023-04-18T15:53:49.831Z,97.20
2023-04-18T15:56:16.949Z,96.90
2023-04-18T15:58:43.607Z,97.30
2023-04-18T16:01:10.516Z,97.70
2023-04-18T16:03:38.013Z,98.20
2023-04-18T16:06:04.829Z,98.40
2023-04-18T16:08:33.145Z,98.00
2023-04-18T16:11:00.282Z,98.80
2023-04-18T16:13:27.071Z,97.80
2023-04-18T16:15:54.021Z,97.10
2023-04-18T16:18:21.015Z,97.40
2023-04-18T16:20:47.869Z,97.50
2023-04-18T16:23:14.574Z,98.70
2023-04-18T16:25:41.351Z,98.50
2023-04-18T16:28:08.295Z,97.60
2023-04-18T16:30:34.980Z,97.50
2023-04-18T16:33:02.069Z,97.20
2023-04-18T16:35:28.992Z,97.20
2023-04-18T16:37:55.731Z,97.00
2023-04-18T16:40:22.498Z,97.80
2023-04-18T16:42:49.338Z,98.30
2023-04-18T16:45:17.374Z,98.40
2023-04-18T16:47:44.077Z,98.20
2023-04-18T16:50:11.074Z,98.10
2023-04-18T16:52:37.864Z,98.70
2023-04-18T16:55:05.150Z,97.90
2023-04-18T16:57:31.844Z,98.30
2023-04-18T17:00:00.650Z,98.80
2023-04-18T17:02:27.513Z,98.70
2023-04-18T17:04:54.523Z,98.70
2023-04-18T17:07:21.247Z,98.80
2023-04-18T17:09:48.176Z,99.50
2023-04-18T17:12:14.923Z,98.80
2023-04-18T17:14:41.877Z,99.90
2023-04-18T17:17:08.664Z,99.20
2023-04-18T17:19:35.597Z,99.00
2023-04-18T17:22:02.772Z,98.80
2023-04-18T17:24:29.485Z,98.70
2023-04-18T17:26:57.864Z,97.60
2023-04-18T17:29:25.412Z,97.30
2023-04-18T17:31:53.447Z,97.30
2023-04-18T17:34:20.295Z,97.30
2023-04-18T17:36:47.094Z,96.90
2023-04-18T17:39:18.761Z,96.70
2023-04-18T17:41:46.106Z,96.80
2023-04-18T17:44:13.033Z,97.80
2023-04-18T17:46:39.771Z,97.90
2023-04-18T17:49:06.540Z,98.30
2023-04-18T17:51:33.326Z,98.60
2023-04-18T17:54:00.145Z,98.80
2023-04-18T17:56:27.466Z,99.90
2023-04-18T17:58:56.410Z,99.50
2023-04-18T18:01:24.934Z,99.70
2023-04-18T18:03:53.788Z,99.90
2023-04-18T18:06:21.279Z,99.20
2023-04-18T18:08:48.382Z,99.60
2023-04-18T18:11:15.146Z,99.70
2023-04-18T18:13:42.358Z,99.60
2023-04-18T18:16:09.332Z,99.60
2023-04-18T18:18:36.904Z,99.40
2023-04-18T18:21:03.997Z,99.70
2023-04-18T18:23:30.904Z,99.90
2023-04-18T18:25:57.600Z,99.90
2023-04-18T18:28:24.469Z,99.90
2023-04-18T18:30:51.483Z,99.90
2023-04-18T18:33:18.392Z,99.90
2023-04-18T18:35:45.186Z,99.90
2023-04-18T18:38:11.910Z,99.90
2023-04-18T18:40:38.808Z,99.90
2023-04-18T18:43:05.713Z,99.90
2023-04-18T18:45:32.476Z,99.90
2023-04-18T18:47:59.468Z,99.90
2023-04-18T18:50:26.365Z,99.90
2023-04-18T18:52:53.166Z,99.90
2023-04-18T18:55:20.103Z,99.90
2023-04-18T18:57:46.900Z,99.90
2023-04-18T19:00:13.845Z,99.90
2023-04-18T19:02:40.853Z,99.90
2023-04-18T19:05:07.848Z,99.90
2023-04-18T19:07:34.692Z,99.90
2023-04-18T19:10:02.073Z,99.90
2023-04-18T19:12:29.447Z,99.90
2023-04-18T19:14:56.442Z,99.90
2023-04-18T19:17:25.019Z,99.90
2023-04-18T19:19:52.143Z,99.90
2023-04-18T19:22:34.456Z,99.90
2023-04-18T19:25:01.408Z,99.90
2023-04-18T19:27:28.235Z,99.90
2023-04-18T19:29:55.158Z,99.90
2023-04-18T19:32:22.060Z,99.90
2023-04-18T19:34:48.780Z,99.90
2023-04-18T19:37:15.689Z,99.90
2023-04-18T19:39:42.458Z,99.90
2023-04-18T19:42:09.110Z,99.90
2023-04-18T19:44:35.916Z,99.90
2023-04-18T19:47:03.135Z,99.90
2023-04-18T19:49:30.457Z,99.90
2023-04-18T19:51:58.334Z,99.90
2023-04-18T19:54:25.323Z,99.90
2023-04-18T19:56:52.126Z,99.90
2023-04-18T19:59:20.987Z,99.90
2023-04-18T20:01:47.829Z,99.90
2023-04-18T20:04:14.912Z,99.90
2023-04-18T20:06:45.410Z,99.90
2023-04-18T20:09:16.858Z,99.90
2023-04-18T20:11:43.796Z,99.90
2023-04-18T20:14:10.871Z,99.90
2023-04-18T20:16:39.217Z,99.90
2023-04-18T20:19:06.181Z,99.90
2023-04-18T20:21:33.055Z,99.90
2023-04-18T20:23:59.873Z,99.90
2023-04-18T20:26:26.835Z,99.90
2023-04-18T20:28:53.545Z,99.90
2023-04-18T20:31:20.387Z,99.90
2023-04-18T20:33:47.259Z,99.90
2023-04-18T20:36:14.230Z,99.90
2023-04-18T20:38:40.972Z,99.90
2023-04-18T20:41:10.731Z,99.90
2023-04-18T20:43:37.678Z,99.90
2023-04-18T20:46:04.514Z,99.90
2023-04-18T20:48:31.384Z,99.90
2023-04-18T20:50:58.261Z,99.90
2023-04-18T20:53:27.066Z,99.90
2023-04-18T20:55:53.905Z,99.90
2023-04-18T20:58:20.847Z,99.90
2023-04-18T21:00:48.709Z,99.90
2023-04-18T21:03:17.489Z,99.90
2023-04-18T21:05:44.440Z,99.90
2023-04-18T21:08:11.593Z,99.90
2023-04-18T21:10:38.431Z,99.90
2023-04-18T21:13:05.166Z,99.90
2023-04-18T21:15:31.845Z,99.90
2023-04-18T21:17:58.492Z,99.90
2023-04-18T21:20:25.179Z,99.90
2023-04-18T21:22:51.955Z,99.90
2023-04-18T21:25:20.486Z,99.90
2023-04-18T21:27:47.221Z,99.90
2023-04-18T21:30:13.930Z,99.90
2023-04-18T21:32:40.636Z,99.90
2023-04-18T21:35:07.306Z,99.90
2023-04-18T21:37:33.942Z,99.90
2023-04-18T21:40:00.640Z,99.90
2023-04-18T21:42:27.331Z,99.90
2023-04-18T21:44:54.947Z,99.90
2023-04-18T21:47:21.673Z,99.90
2023-04-18T21:49:48.500Z,99.90
2023-04-18T21:52:15.370Z,99.90
2023-04-18T21:54:42.028Z,99.90
2023-04-18T21:57:08.701Z,99.90
2023-04-18T21:59:35.380Z,99.90
2023-04-18T22:02:02.193Z,99.90
2023-04-18T22:04:29.135Z,99.90
2023-04-18T22:06:57.597Z,99.90
2023-04-18T22:09:24.304Z,99.90
2023-04-18T22:11:51.940Z,99.90
2023-04-18T22:14:20.031Z,99.90
2023-04-18T22:16:46.815Z,99.90
2023-04-18T22:19:14.176Z,99.90
2023-04-18T22:21:40.863Z,99.90
2023-04-18T22:24:07.539Z,99.90
2023-04-18T22:26:34.179Z,99.90
2023-04-18T22:29:00.848Z,99.90
2023-04-18T22:31:27.543Z,99.90
2023-04-18T22:33:54.164Z,99.90
2023-04-18T22:36:20.811Z,99.90
2023-04-18T22:38:47.449Z,99.90
2023-04-18T22:41:14.032Z,99.90
2023-04-18T22:43:40.804Z,99.90
2023-04-18T22:46:07.468Z,99.90
2023-04-18T22:48:35.296Z,99.90
2023-04-18T22:51:02.011Z,99.90
2023-04-18T22:53:28.714Z,99.90
2023-04-18T22:55:55.498Z,99.90
2023-04-18T22:58:22.266Z,99.90
2023-04-18T23:00:48.899Z,99.90
2023-04-18T23:03:15.863Z,99.90
2023-04-18T23:05:42.632Z,99.90
2023-04-18T23:08:09.320Z,99.90
2023-04-18T23:10:35.966Z,99.90
2023-04-18T23:13:02.667Z,99.90
2023-04-18T23:15:29.312Z,99.90
2023-04-18T23:17:55.992Z,99.90
2023-04-18T23:20:23.973Z,99.90
2023-04-18T23:22:51.684Z,99.90
2023-04-18T23:25:19.568Z,99.90
2023-04-18T23:27:46.363Z,99.90
2023-04-18T23:30:13.052Z,99.90
2023-04-18T23:32:39.744Z,99.90
2023-04-18T23:35:06.531Z,99.90
2023-04-18T23:37:33.137Z,99.90
2023-04-18T23:39:59.766Z,99.90
2023-04-18T23:42:26.437Z,99.90
2023-04-18T23:44:53.201Z,99.90
2023-04-18T23:47:19.834Z,99.90
2023-04-18T23:49:46.545Z,99.90
2023-04-18T23:52:13.134Z,99.90
2023-04-18T23:54:39.902Z,99.90
2023-04-18T23:57:06.565Z,99.90
2023-04-18T23:59:33.238Z,99.90
